• Join FlightAware (Why Join?)
  • Login
  • US Flag 
12:00PM EDT


 

Airport Tracker/Info


-or-


 

Live Flight TrackerFlight Track Log ✈ RPA1631 ✈ 12-Jun-2013 ✈ KMSN - KDEN

Flight Track Log - Related Links

Times and Time Zones

All times are in EDT time to prevent confusion due to time zone crossing. See the RPA1631 flight status page for this flight to view local times or setup timezone preferences in your user account.

Time Position Orientation Groundspeed Altitude Reporting Facility
EDT Latitude Longitude Course Direction KTS MPH feet Rate Location/Type
09:13AM 43.0078 -89.3617 186° South 217 250 4,300  Level Chicago Center
09:14AM 42.9322 -89.3683 184° South 261 300 6,600 2,460 Climbing Chicago Center
09:15AM 42.8394 -89.3122 156° South 309 356 9,400 2,340 Climbing Chicago Center
09:16AM 42.7633 -89.2594 153° Southeast 307 353 11,500 1,920 Climbing Chicago Center
09:17AM 42.5334 -89.4083 187° South  Level FlightAware Approximate
09:17AM 42.6781 -89.2672 184° South 308 354 13,400  Level Chicago Center
09:18AM 42.4334 -89.4238 186° South  Level FlightAware Approximate
09:18AM 42.6147 -89.3336 218° Southwest 302 348 15,500  Level Chicago Center
09:19AM 42.5842 -89.4364 248° West 294 338 17,800 1,740 Climbing Chicago Center
09:20AM 42.5508 -89.5408 247° West 301 346 19,100 1,380 Climbing Chicago Center
09:21AM 42.5117 -89.6658 247° West 309 356 20,700 1,320 Climbing Chicago Center
09:22AM 42.4756 -89.7831 247° West 334 384 21,900 1,680 Climbing Chicago Center
09:23AM 42.4389 -89.8978 247° West 332 382 24,200 1,800 Climbing Chicago Center
09:24AM 42.4036 -90.0075 247° West 335 386 25,700 1,620 Climbing Chicago Center
09:25AM 42.3675 -90.1253 247° West 339 390 27,600 1,740 Climbing Chicago Center
09:26AM 42.3225 -90.2689 247° West 346 398 29,300 1,560 Climbing Chicago Center
09:27AM 42.2833 -90.3900 246° West 351 404 30,900 1,260 Climbing Chicago Center
09:28AM 42.2444 -90.5103 246° West 353 406 31,900 840 Climbing Chicago Center
09:29AM 42.2031 -90.6367 246° West 366 421 32,700 720 Climbing Chicago Center
09:30AM 42.1608 -90.7656 246° West 375 432 33,500 600 Climbing Chicago Center
09:31AM 42.1181 -90.8978 246° West 384 442 34,000 240 Climbing Chicago Center
09:32AM 42.0931 -91.0725 259° West 399 459 34,000  Level Chicago Center
09:33AM 42.0747 -91.2183 260° West 397 457 34,000  Level Chicago Center
09:34AM 42.0572 -91.3617 261° West 393 452 34,000  Level Chicago Center
09:35AM 42.0389 -91.5094 261° West 399 459 34,000  Level Chicago Center
09:36AM 42.0203 -91.6561 260° West 399 459 34,000  Level Chicago Center
09:37AM 41.9983 -91.8319 261° West 398 458 34,000  Level Chicago Center
09:38AM 41.9797 -91.9772 260° West 396 456 34,000  Level Chicago Center
09:39AM 41.9614 -92.1244 261° West 399 459 34,000  Level Chicago Center
09:40AM 41.9433 -92.2714 261° West 400 460 34,000 240 Level Chicago Center
09:41AM 41.9231 -92.4172 259° West 401 461 34,600 840 Climbing Chicago Center
09:42AM 41.9108 -92.5081 260° West 402 463 35,300 900 Climbing Minneapolis Center
09:43AM 41.8914 -92.6553 260° West 403 464 36,000 420 Climbing Minneapolis Center
09:44AM 41.8789 -92.7433 259° West 406 467 36,000  Level Chicago Center
09:45AM 41.8583 -92.8914 259° West 407 468 36,000  Level Chicago Center
09:45AM 41.8506 -92.9481 260° West 404 465 36,000  Level Minneapolis Center
09:46AM 41.8317 -93.0908 260° West 398 458 36,000  Level Minneapolis Center
09:47AM 41.8114 -93.2325 259° West 394 453 36,000  Level Minneapolis Center
09:48AM 41.7869 -93.4058 259° West 397 457 36,000  Level Minneapolis Center
09:49AM 41.7664 -93.5489 259° West 396 456 36,000  Level Minneapolis Center
09:50AM 41.7469 -93.6936 260° West 398 458 36,000  Level Minneapolis Center
09:51AM 41.7261 -93.8372 259° West 396 456 36,000  Level Minneapolis Center
09:52AM 41.7006 -94.0047 259° West 400 460 36,000  Level Minneapolis Center
09:53AM 41.6786 -94.1506 259° West 398 458 36,000  Level Minneapolis Center
09:54AM 41.6564 -94.2964 259° West 399 459 36,000  Level Minneapolis Center
09:55AM 41.6344 -94.4442 259° West 403 464 36,000  Level Minneapolis Center
09:56AM 41.6122 -94.5889 258° West 398 458 36,000  Level Minneapolis Center
09:57AM 41.5889 -94.7303 258° West 392 451 36,000  Level Minneapolis Center
09:58AM 41.5689 -94.8728 259° West 390 449 36,000  Level Minneapolis Center
09:59AM 41.5478 -95.0153 259° West 391 450 36,000  Level Minneapolis Center
10:00AM 41.5211 -95.1822 258° West 386 444 36,000  Level Minneapolis Center
10:01AM 41.4997 -95.3233 259° West 388 447 36,000  Level Minneapolis Center
10:02AM 41.4758 -95.4653 257° West 390 449 36,000  Level Minneapolis Center
10:03AM 41.4522 -95.6089 258° West 396 456 36,000  Level Minneapolis Center
10:04AM 41.4272 -95.7556 257° West 394 453 36,000  Level Minneapolis Center
10:05AM 41.4061 -95.8969 259° West 390 449 36,000  Level Minneapolis Center
10:07AM 41.3811 -96.0389 257° West 392 451 36,000  Level Minneapolis Center
10:08AM 41.3581 -96.1808 258° West 393 452 36,000  Level Minneapolis Center
10:09AM 41.3347 -96.3194 257° West 385 443 36,000  Level Minneapolis Center
10:10AM 41.3106 -96.4661 258° West 383 441 36,000  Level Minneapolis Center
10:11AM 41.2864 -96.6042 257° West 384 442 36,000  Level Minneapolis Center
10:12AM 41.2619 -96.7411 257° West 382 440 36,000  Level Minneapolis Center
10:13AM 41.2381 -96.8792 257° West 384 442 36,000  Level Minneapolis Center
10:14AM 41.2086 -97.0436 257° West 382 440 36,000  Level Minneapolis Center
10:15AM 41.1847 -97.1811 257° West 381 438 36,000  Level Minneapolis Center
10:16AM 41.1597 -97.3189 256° West 384 442 36,000  Level Minneapolis Center
10:17AM 41.1361 -97.4494 257° West 383 441 36,000  Level Minneapolis Center
10:18AM 41.1111 -97.5872 257° West 384 442 36,000  Level Minneapolis Center
10:19AM 41.0869 -97.7233 257° West 380 437 36,000  Level Minneapolis Center
10:20AM 41.0572 -97.8886 257° West 382 440 36,000  Level Minneapolis Center
10:21AM 41.0319 -98.0239 256° West 380 437 36,000  Level Minneapolis Center
10:22AM 41.0067 -98.1597 256° West 379 436 36,000  Level Minneapolis Center
10:23AM 40.9814 -98.2967 256° West 381 438 36,000  Level Minneapolis Center
10:24AM 40.9544 -98.4364 256° West 381 438 36,000  Level Minneapolis Center
10:25AM 40.9283 -98.5722 256° West 381 438 36,000  Level Minneapolis Center
10:27AM 40.8878 -98.7875 256° West 379 436 36,000  Level Minneapolis Center
10:27AM 40.8819 -98.9097 266° West 371 427 36,000  Level Denver Center
10:28AM 40.8761 -99.0392 267° West 369 425 36,000  Level Denver Center
10:29AM 40.8697 -99.1725 266° West 371 427 36,000  Level Denver Center
10:31AM 40.8633 -99.3122 267° West 378 435 36,000  Level Denver Center
10:32AM 40.8550 -99.4781 266° West 377 434 36,000  Level Denver Center
10:33AM 40.8467 -99.6144 265° West 373 429 36,000  Level Denver Center
10:34AM 40.8394 -99.7531 266° West 376 433 36,000  Level Denver Center
10:35AM 40.8314 -99.8928 266° West 373 429 36,000  Level Denver Center
10:36AM 40.8242 -100.0228 266° West 372 428 36,000  Level Denver Center
10:37AM 40.8150 -100.1747 265° West 374 430 36,000  Level Denver Center
10:38AM 40.8050 -100.3056 264° West 374 430 36,000  Level Denver Center
10:39AM 40.7814 -100.4547 258° West 371 427 36,000  Level Denver Center
10:40AM 40.7614 -100.5833 258° West 371 427 36,000  Level Denver Center
10:41AM 40.7364 -100.7331 258° West 368 423 36,000  Level Denver Center
10:42AM 40.7164 -100.8636 259° West 372 428 36,000  Level Denver Center
10:43AM 40.6969 -100.9906 259° West 367 422 36,000  Level Denver Center
10:44AM 40.6739 -101.1342 258° West 359 413 36,000  Level Denver Center
10:45AM 40.6539 -101.2581 258° West 361 415 36,000  Level Denver Center
10:46AM 40.6306 -101.4028 258° West 362 417 36,000  Level Denver Center
10:47AM 40.6097 -101.5272 258° West 365 420 36,000  Level Denver Center
10:48AM 40.5819 -101.6944 258° West 366 421 36,000  Level Denver Center
10:49AM 40.5608 -101.8189 257° West 365 420 36,000  Level Denver Center
10:50AM 40.5356 -101.9650 257° West 367 422 36,000  Level Denver Center
10:51AM 40.5150 -102.0906 258° West 367 422 36,000  Level Denver Center
10:52AM 40.4889 -102.2358 257° West 367 422 36,000  Level Denver Center
10:53AM 40.4681 -102.3617 258° West 368 423 36,000 -540 Level Denver Center
10:55AM 40.4428 -102.5089 257° West 371 427 34,900 -1,320 Descending Denver Center
10:56AM 40.4200 -102.6333 257° West 367 422 33,300 -1,680 Descending Denver Center
10:57AM 40.3933 -102.7853 257° West 353 406 31,200 -1,680 Descending Denver Center
10:58AM 40.3719 -102.9089 257° West 348 400 29,600 -1,800 Descending Denver Center
10:59AM 40.3464 -103.0533 257° West 343 395 27,600 -1,740 Descending Denver Center
11:00AM 40.3256 -103.1703 257° West 333 383 26,100 -1,500 Descending Denver Center
11:01AM 40.3053 -103.2850 257° West 325 374 24,500 -1,500 Descending Denver Center
11:02AM 40.2842 -103.3969 256° West 319 367 23,000 -1,500 Descending Denver Center
11:03AM 40.2639 -103.5097 257° West 319 367 21,500 -1,500 Descending Denver Center
11:04AM 40.2439 -103.6208 257° West 315 362 20,000 -1,560 Descending Denver Center
11:05AM 40.2203 -103.7425 256° West 300 345 18,300 -1,560 Descending Denver Center
11:06AM 40.2019 -103.8433 257° West 289 333 16,800 -1,620 Descending Denver Center
11:07AM 40.1592 -103.9425 241° Southwest 293 337 15,000 -1,620 Descending Denver Center
11:08AM 40.1167 -104.0358 239° Southwest 295 339 13,500 -960 Descending Denver Center
11:09AM 40.0569 -104.1019 220° Southwest 268 308 13,100 -420 Descending Denver Center
11:10AM 39.9892 -104.1292 197° South 255 293 12,700 -900 Descending Denver Center
11:11AM 39.9108 -104.1186 174° South 261 300 11,300 -1,140 Descending Denver Center
11:12AM 39.8717 -104.1706 226° Southwest 230 265 10,400 -600 Descending Denver Center
11:13AM 39.8750 -104.2478 273° West 216 249 10,100 -300 Descending Denver Center
11:14AM 39.8742 -104.3200 269° West 191 220 9,800 -720 Descending Denver Center
11:15AM 39.8747 -104.3981 271° West 213 245 8,700 -1,200 Descending Denver Center
11:16AM 39.8758 -104.4811 271° West 215 247 7,400 -1,200 Descending Denver Center
11:17AM 39.8767 -104.5514 271° West 194 223 6,300 -960 Descending Denver Center
11:19AM 39.8769 -104.6136 270° West 165 190 5,500 -480 Descending Denver Center
11:20AM 39.8769 -104.6472 270° West 109 125 5,400 -120 Descending Denver Center
11:22AM 39.8617 -104.6732 233° Southwest  Level Estimated
11:29AM 39.8617 -104.6732 142° Southeast  Level Estimated
11:30AM 39.8617 -104.6732 142° Southeast  Level Estimated